RJOP(METAR)
05/21 23:00
METAR RJOP 211400Z 26005KT 9999 FEW030 BKN050 18/14 Q1007 RMK 1CU030
7SC050 A2974=
戻る
トップページへ戻る
IMOC Co,.Ltd.